Terminal Aerodrome Forecast
Issued by NWS Tuscon, AZ

Home | Current Version | Previous Version | Text Only | Print | Product List | Glossary On
Versions: 1 2 3 4 5 6 7 8 9 10 11 12 13
758
FTUS45 KTWC 172320
TAFDUG
TAF
KDUG 172320Z 1800/1824 04007KT P6SM SCT200
     FM180700 VRB03KT P6SM FEW250
     FM181700 10007KT P6SM SCT250=

USA.gov is the U.S. government's official web portal to all federal, state and local government web resources and services.